Time,TemperatureF,DewpointF,PressureIn,WindDirection,WindDirectionDegrees,WindSpeedMPH,WindSpeedGustMPH,Humidity,HourlyPrecipIn,Conditions,Clouds,dailyrainin,SoftwareType,DateUTC
2014-09-20 00:13:00,67.3,65.5,30.01,East,90,0.0,-999.0,94,-99.99,,,0.00,Acu-Link.com,2014-09-20 04:13:00,
2014-09-20 00:28:00,67.3,65.5,30.01,East,90,0.0,-999.0,94,-99.99,,,0.00,Acu-Link.com,2014-09-20 04:28:00,
2014-09-20 00:43:00,67.3,65.8,30.01,ESE,112,0.0,-999.0,95,-99.99,,,0.00,Acu-Link.com,2014-09-20 04:43:00,
2014-09-20 00:58:00,67.5,66.6,30.01,ESE,112,0.0,-999.0,97,-99.99,,,0.00,Acu-Link.com,2014-09-20 04:58:00,
2014-09-20 01:13:00,67.3,66.4,30.00,SSE,157,0.0,-999.0,97,-99.99,,,0.00,Acu-Link.com,2014-09-20 05:13:00,
2014-09-20 01:28:00,67.3,66.7,30.01,NE,45,0.0,-999.0,98,-99.99,,,0.00,Acu-Link.com,2014-09-20 05:28:00,
2014-09-20 01:44:00,67.3,67.0,30.00,NNE,22,1.1,-999.0,99,-99.99,,,0.00,Acu-Link.com,2014-09-20 05:44:00,
2014-09-20 01:59:00,67.1,66.8,30.00,ESE,112,0.0,-999.0,99,-99.99,,,0.00,Acu-Link.com,2014-09-20 05:59:00,
2014-09-20 02:14:00,67.3,67.0,30.00,ESE,112,0.0,-999.0,99,-99.99,,,0.00,Acu-Link.com,2014-09-20 06:14:00,
2014-09-20 02:29:00,66.9,66.6,30.00,SSE,157,0.0,-999.0,99,-99.99,,,0.00,Acu-Link.com,2014-09-20 06:29:00,
2014-09-20 02:44:00,67.1,66.8,29.99,SW,225,0.0,-999.0,99,-99.99,,,0.00,Acu-Link.com,2014-09-20 06:44:00,
2014-09-20 02:59:00,66.9,66.6,29.99,ENE,67,0.0,-999.0,99,-99.99,,,0.00,Acu-Link.com,2014-09-20 06:59:00,
2014-09-20 03:15:00,66.6,66.3,29.98,NE,45,0.0,-999.0,99,-99.99,,,0.00,Acu-Link.com,2014-09-20 07:15:00,
2014-09-20 03:30:00,66.0,65.7,29.98,SSE,157,1.1,-999.0,99,-99.99,,,0.00,Acu-Link.com,2014-09-20 07:30:00,
2014-09-20 03:45:00,65.7,65.4,29.98,NNE,22,0.0,-999.0,99,-99.99,,,0.00,Acu-Link.com,2014-09-20 07:45:00,
2014-09-20 04:00:00,65.3,65.0,29.97,SE,135,1.1,-999.0,99,-99.99,,,0.00,Acu-Link.com,2014-09-20 08:00:00,
2014-09-20 04:15:00,65.3,65.0,29.97,SSE,157,0.0,-999.0,99,-99.99,,,0.00,Acu-Link.com,2014-09-20 08:15:00,
2014-09-20 04:30:00,64.8,64.5,29.97,NNE,22,0.0,-999.0,99,-99.99,,,0.00,Acu-Link.com,2014-09-20 08:30:00,
2014-09-20 04:45:00,64.4,64.1,29.97,SE,135,0.0,-999.0,99,-99.99,,,0.00,Acu-Link.com,2014-09-20 08:45:00,
2014-09-20 05:01:00,64.4,64.1,29.97,NNE,22,0.0,-999.0,99,-99.99,,,0.00,Acu-Link.com,2014-09-20 09:01:00,
2014-09-20 05:16:00,64.0,63.7,29.97,SSW,202,0.0,-999.0,99,-99.99,,,0.00,Acu-Link.com,2014-09-20 09:16:00,
2014-09-20 05:31:00,64.0,63.7,29.97,NNE,22,0.0,-999.0,99,-99.99,,,0.00,Acu-Link.com,2014-09-20 09:31:00,
2014-09-20 05:46:00,63.9,63.6,29.98,NNE,22,0.0,-999.0,99,-99.99,,,0.00,Acu-Link.com,2014-09-20 09:46:00,
2014-09-20 06:01:00,63.9,63.6,29.98,NW,315,0.0,-999.0,99,-99.99,,,0.00,Acu-Link.com,2014-09-20 10:01:00,
2014-09-20 06:16:00,63.5,63.2,29.98,South,180,0.0,-999.0,99,-99.99,,,0.00,Acu-Link.com,2014-09-20 10:16:00,
2014-09-20 06:31:00,63.5,63.2,29.98,NNE,22,0.0,-999.0,99,-99.99,,,0.00,Acu-Link.com,2014-09-20 10:31:00,
2014-09-20 06:46:00,63.5,63.2,29.98,NNE,22,0.0,-999.0,99,-99.99,,,0.00,Acu-Link.com,2014-09-20 10:46:00,
2014-09-20 07:01:00,63.1,62.8,29.99,NNW,337,0.0,-999.0,99,-99.99,,,0.00,Acu-Link.com,2014-09-20 11:01:00,
2014-09-20 07:17:00,63.0,62.7,29.99,NNW,337,0.0,-999.0,99,-99.99,,,0.00,Acu-Link.com,2014-09-20 11:17:00,
2014-09-20 07:32:00,63.3,63.0,29.99,NNE,22,0.0,-999.0,99,-99.99,,,0.00,Acu-Link.com,2014-09-20 11:32:00,
2014-09-20 07:47:00,63.5,63.2,29.99,NNE,22,0.0,-999.0,99,-99.99,,,0.00,Acu-Link.com,2014-09-20 11:47:00,
2014-09-20 08:02:00,63.9,63.6,30.00,SSE,157,0.0,-999.0,99,-99.99,,,0.00,Acu-Link.com,2014-09-20 12:02:00,
2014-09-20 08:17:00,64.6,64.3,30.00,NW,315,3.7,-999.0,99,-99.99,,,0.00,Acu-Link.com,2014-09-20 12:17:00,
2014-09-20 08:32:00,65.5,65.2,29.99,North,0,1.7,-999.0,99,-99.99,,,0.00,Acu-Link.com,2014-09-20 12:32:00,
2014-09-20 08:47:00,66.4,66.1,29.99,SE,135,0.0,-999.0,99,-99.99,,,0.00,Acu-Link.com,2014-09-20 12:47:00,
2014-09-20 09:02:00,68.7,68.4,29.99,NE,45,1.7,-999.0,99,-99.99,,,0.00,Acu-Link.com,2014-09-20 13:02:00,
2014-09-20 09:17:00,70.2,69.9,29.99,NW,315,0.0,-999.0,99,-99.99,,,0.00,Acu-Link.com,2014-09-20 13:17:00,
2014-09-20 09:33:00,71.2,70.9,29.99,SSE,157,0.0,-999.0,99,-99.99,,,0.00,Acu-Link.com,2014-09-20 13:33:00,
2014-09-20 09:48:00,72.1,71.8,29.99,ESE,112,0.0,-999.0,99,-99.99,,,0.00,Acu-Link.com,2014-09-20 13:48:00,
2014-09-20 10:03:00,72.9,72.6,29.99,North,0,0.0,-999.0,99,-99.99,,,0.00,Acu-Link.com,2014-09-20 14:03:00,
2014-09-20 10:18:00,73.6,73.3,29.99,North,0,1.7,-999.0,99,-99.99,,,0.00,Acu-Link.com,2014-09-20 14:18:00,
2014-09-20 10:33:00,74.3,74.0,29.99,NW,315,2.7,-999.0,99,-99.99,,,0.00,Acu-Link.com,2014-09-20 14:33:00,
2014-09-20 10:48:00,75.0,74.1,29.98,WSW,247,2.2,-999.0,97,-99.99,,,0.00,Acu-Link.com,2014-09-20 14:48:00,
2014-09-20 11:04:00,75.6,74.1,29.98,NNW,337,1.7,-999.0,95,-99.99,,,0.00,Acu-Link.com,2014-09-20 15:04:00,
2014-09-20 11:19:00,75.7,74.2,29.99,NNE,22,0.0,-999.0,95,-99.99,,,0.00,Acu-Link.com,2014-09-20 15:19:00,
2014-09-20 11:34:00,76.5,74.6,29.98,WNW,292,1.7,-999.0,94,-99.99,,,0.00,Acu-Link.com,2014-09-20 15:34:00,
2014-09-20 11:49:00,77.0,74.5,29.98,West,270,0.0,-999.0,92,-99.99,,,0.00,Acu-Link.com,2014-09-20 15:49:00,
2014-09-20 12:04:00,77.5,74.3,29.98,North,0,1.1,-999.0,90,-99.99,,,0.00,Acu-Link.com,2014-09-20 16:04:00,
2014-09-20 12:19:00,77.5,74.0,29.97,NE,45,2.2,-999.0,89,-99.99,,,0.00,Acu-Link.com,2014-09-20 16:19:00,
2014-09-20 12:34:00,77.9,74.0,29.97,NW,315,1.7,-999.0,88,-99.99,,,0.00,Acu-Link.com,2014-09-20 16:34:00,
2014-09-20 12:50:00,78.8,74.6,29.96,WNW,292,2.2,-999.0,87,-99.99,,,0.00,Acu-Link.com,2014-09-20 16:50:00,
2014-09-20 13:05:00,78.8,74.6,29.96,NW,315,2.2,-999.0,87,-99.99,,,0.00,Acu-Link.com,2014-09-20 17:05:00,
2014-09-20 13:20:00,78.6,74.0,29.95,NW,315,1.7,-999.0,86,-99.99,,,0.00,Acu-Link.com,2014-09-20 17:20:00,
2014-09-20 13:35:00,78.8,74.9,29.95,SSE,157,2.7,-999.0,88,-99.99,,,0.00,Acu-Link.com,2014-09-20 17:35:00,
2014-09-20 13:50:00,79.3,73.7,29.95,ESE,112,2.7,-999.0,83,-99.99,,,0.00,Acu-Link.com,2014-09-20 17:50:00,
2014-09-20 14:05:00,79.3,73.3,29.93,NNW,337,0.0,-999.0,82,-99.99,,,0.00,Acu-Link.com,2014-09-20 18:05:00,
2014-09-20 14:20:00,79.5,73.5,29.92,WNW,292,0.0,-999.0,82,-99.99,,,0.00,Acu-Link.com,2014-09-20 18:20:00,
2014-09-20 14:35:00,80.1,72.6,29.92,West,270,2.2,-999.0,78,-99.99,,,0.00,Acu-Link.com,2014-09-20 18:35:00,
2014-09-20 14:50:00,80.2,73.5,29.90,NNW,337,1.1,-999.0,80,-99.99,,,0.00,Acu-Link.com,2014-09-20 18:50:00,
2014-09-20 15:06:00,80.2,73.8,29.90,SSE,157,0.0,-999.0,81,-99.99,,,0.00,Acu-Link.com,2014-09-20 19:06:00,
2014-09-20 15:21:00,80.1,74.5,29.89,SSW,202,0.0,-999.0,83,-99.99,,,0.00,Acu-Link.com,2014-09-20 19:21:00,
2014-09-20 15:36:00,79.5,73.5,29.89,SSE,157,0.0,-999.0,82,-99.99,,,0.00,Acu-Link.com,2014-09-20 19:36:00,
2014-09-20 15:51:00,79.9,73.9,29.88,East,90,1.1,-999.0,82,-99.99,,,0.00,Acu-Link.com,2014-09-20 19:51:00,
2014-09-20 16:06:00,79.9,72.8,29.88,West,270,3.2,-999.0,79,-99.99,,,0.00,Acu-Link.com,2014-09-20 20:06:00,
2014-09-20 16:21:00,79.2,71.7,29.87,NNW,337,0.0,-999.0,78,-99.99,,,0.00,Acu-Link.com,2014-09-20 20:21:00,
2014-09-20 16:36:00,79.2,71.7,29.87,NNW,337,0.0,-999.0,78,-99.99,,,0.00,Acu-Link.com,2014-09-20 20:36:00,
2014-09-20 16:52:00,79.5,73.1,29.86,South,180,1.1,-999.0,81,-99.99,,,0.00,Acu-Link.com,2014-09-20 20:52:00,
2014-09-20 17:07:00,79.2,72.9,29.85,NW,315,1.7,-999.0,81,-99.99,,,0.00,Acu-Link.com,2014-09-20 21:07:00,
2014-09-20 17:22:00,79.0,71.2,29.85,SE,135,0.0,-999.0,77,-99.99,,,0.00,Acu-Link.com,2014-09-20 21:22:00,
2014-09-20 17:37:00,78.6,71.9,29.85,WNW,292,0.0,-999.0,80,-99.99,,,0.00,Acu-Link.com,2014-09-20 21:37:00,
2014-09-20 17:52:00,78.1,73.2,29.85,South,180,0.0,-999.0,85,-99.99,,,0.00,Acu-Link.com,2014-09-20 21:52:00,
2014-09-20 18:07:00,76.5,75.9,29.84,NW,315,0.0,-999.0,98,-99.99,,,0.00,Acu-Link.com,2014-09-20 22:07:00,
2014-09-20 18:23:00,75.4,75.1,29.84,SE,135,0.0,-999.0,99,-99.99,,,0.00,Acu-Link.com,2014-09-20 22:23:00,
2014-09-20 18:38:00,74.3,74.0,29.84,East,90,0.0,-999.0,99,-99.99,,,0.00,Acu-Link.com,2014-09-20 22:38:00,
2014-09-20 18:53:00,73.4,73.1,29.84,ENE,67,0.0,-999.0,99,-99.99,,,0.00,Acu-Link.com,2014-09-20 22:53:00,
2014-09-20 19:08:00,72.1,71.8,29.84,ENE,67,0.0,-999.0,99,-99.99,,,0.00,Acu-Link.com,2014-09-20 23:08:00,
2014-09-20 19:23:00,71.4,71.1,29.84,ESE,112,0.0,-999.0,99,-99.99,,,0.00,Acu-Link.com,2014-09-20 23:23:00,
2014-09-20 19:38:00,70.3,70.0,29.83,WSW,247,0.0,-999.0,99,-99.99,,,0.00,Acu-Link.com,2014-09-20 23:38:00,
2014-09-20 19:53:00,69.4,69.1,29.84,SW,225,0.0,-999.0,99,-99.99,,,0.00,Acu-Link.com,2014-09-20 23:53:00,
2014-09-20 20:08:00,68.9,68.6,29.84,SW,225,0.0,-999.0,99,-99.99,,,0.00,Acu-Link.com,2014-09-21 00:08:00,
2014-09-20 20:23:00,68.2,67.9,29.84,SW,225,0.0,-999.0,99,-99.99,,,0.00,Acu-Link.com,2014-09-21 00:23:00,
2014-09-20 20:39:00,67.8,67.5,29.85,SW,225,0.0,-999.0,99,-99.99,,,0.00,Acu-Link.com,2014-09-21 00:39:00,
2014-09-20 20:54:00,67.3,67.0,29.85,SW,225,0.0,-999.0,99,-99.99,,,0.00,Acu-Link.com,2014-09-21 00:54:00,
2014-09-20 21:09:00,66.7,66.4,29.85,SW,225,0.0,-999.0,99,-99.99,,,0.00,Acu-Link.com,2014-09-21 01:09:00,